Accueil
METAR-TAF:

METAR-TAF

Aéroports :

Aéroport de Caen - Carpiquet

Caen, France

latitude: 49-11N, longitude: 000-27W, altitude: 78 m

Observation

Le bulletin a été fait il y a 11 minutes, à 20:30 UTC
Vent 4 kt de nord/nord-est
Température 4°C
Humidité 75%
Pression 1020 hPa
Visibilité 10 km ou plus
pas de nuages en-dessous de 1500 mètres et pas de cumulonimbus.

METAR: LFRK 182030Z AUTO 02004KT CAVOK 04/00 Q1020 BECMG 08010KT

Heure: 21:41 (20:41 UTC)

Prévision

Le bulletin a été fait il y a 6 heures et 41 minutes, à 14:00 UTC
Prévision valable du 18 à 15 UTC au 18 à 24 UTC
Vent 10 kt de est
Visibilité 10 km ou plus
pas de nuages en-dessous de 1500 mètres et pas de cumulonimbus.
Probabilité 30% :
Temporairement
du 18 à 15 UTC au 18 à 20 UTC
Vent 15 kt de est avec des rafales jusqu'à 25 kt

TAF: LFRK 181400Z 1815/1824 08010KT CAVOK PROB30 TEMPO 1815/1820 08015G25KT

Observations et prévisions météorologiques de plus de 4000 aéroports (messages METAR et TAF).

Les stations disponibles sont représentées par des disques jaunes et rouges sur la carte.

Passer la souris dessus pour voir le nom de la station.

Cliquer dessus pour voir les observations et prévisions météorologiques.

Pour changer de carte: cliquez sur les boutons verts avec une croix noire pour zoomer, sur le bouton vert avec un tiret pour effectuer un zoom arrière, ou sur les flèches vertes pour les cartes adjacentes.


METAR-TAF: